Jarrell, Texas
Current Conditions -  °F | °C
As of 5:15 AM on Wednesday 26 Nov 2014 (Local Time) from KGTU Reporting Station
Clear Clear  
Wind Chill: 40°   Ceiling: Unl
Heat Index: 45°   Visibility: 10mi
Dew Point: 28°   Wind: 8mph
Humidity: 53%   Direction: 230°SW
Pressure: 30.15"   Gusts: NA
Location:  30.82°N, 97.6°W
Report Text: KGTU 261115Z 23007KT 10SM CLR 07/M02 A3015 RMK AO1
Loading
Personal Weather Stations






























Interactive Weather Map New forecast layout! Learn more

10-Day Weather Forecast

Advertisements
Track Severe Weather on mobile